Terminal Aerodrome Forecast
Issued by NWS

Home | Current Version | Previous Version | Graphics & Text | Print | Product List | Glossary On
Versions: 1 2 3 4 5 6 7 8 9 10 11 12 13 14 15 16
000
FTUS43 KMPX 202000 AAA
TAFRWF
TAF AMD
KRWF 202020Z 2020/2118 27012G22KT P6SM BKN050
      TEMPO 2021/2023 30020G45KT 2SM TSRA OVC035CB
     FM210200 31009KT P6SM SCT045 BKN120
     FM210400 30008KT P6SM SCT120=

USA.gov is the U.S. government's official web portal to all federal, state and local government web resources and services.